createdAt,value
2022-12-14T00:01:27.752Z,0.10
2022-12-14T00:04:13.190Z,0.10
2022-12-14T00:06:58.975Z,-0.10
2022-12-14T00:09:45.695Z,-0.10
2022-12-14T00:12:31.446Z,-0.10
2022-12-14T00:15:17.098Z,-0.10
2022-12-14T00:18:03.106Z,-0.10
2022-12-14T00:20:48.659Z,-0.10
2022-12-14T00:23:38.926Z,-0.10
2022-12-14T00:26:30.914Z,0.00
2022-12-14T00:29:16.965Z,0.00
2022-12-14T00:32:02.562Z,0.00
2022-12-14T00:34:48.327Z,-0.10
2022-12-14T00:37:34.062Z,-0.10
2022-12-14T00:40:19.895Z,-0.10
2022-12-14T00:43:05.566Z,-0.20
2022-12-14T00:45:51.639Z,-0.20
2022-12-14T00:48:37.146Z,-0.20
2022-12-14T00:51:22.626Z,-0.10
2022-12-14T00:54:07.976Z,-0.10
2022-12-14T00:56:53.624Z,-0.10
2022-12-14T00:59:39.386Z,0.00
2022-12-14T01:02:25.243Z,0.00
2022-12-14T01:05:11.289Z,0.00
2022-12-14T01:07:56.778Z,0.00
2022-12-14T01:10:42.302Z,0.00
2022-12-14T01:13:28.266Z,0.00
2022-12-14T01:16:15.149Z,0.10
2022-12-14T01:19:01.449Z,0.10
2022-12-14T01:21:47.249Z,0.00
2022-12-14T01:24:33.196Z,0.10
2022-12-14T01:27:19.245Z,0.00
2022-12-14T01:30:05.258Z,0.00
2022-12-14T01:32:50.729Z,0.00
2022-12-14T01:35:36.197Z,0.00
2022-12-14T01:38:21.987Z,0.10
2022-12-14T01:41:08.555Z,0.10
2022-12-14T01:44:24.538Z,0.10
2022-12-14T01:47:13.117Z,0.10
2022-12-14T01:50:10.848Z,0.10
2022-12-14T01:53:01.550Z,0.10
2022-12-14T01:55:51.831Z,0.10
2022-12-14T01:58:37.352Z,0.10
2022-12-14T02:01:23.098Z,0.10
2022-12-14T02:04:11.171Z,0.10
2022-12-14T02:07:01.111Z,0.10
2022-12-14T02:09:48.113Z,0.10
2022-12-14T02:12:45.395Z,0.00
2022-12-14T02:15:32.055Z,0.00
2022-12-14T02:18:22.480Z,0.10
2022-12-14T02:21:42.488Z,0.10
2022-12-14T02:24:39.972Z,0.10
2022-12-14T02:27:50.313Z,0.10
2022-12-14T02:30:42.709Z,0.10
2022-12-14T02:33:30.944Z,0.10
2022-12-14T02:36:55.282Z,0.10
2022-12-14T02:39:53.097Z,0.20
2022-12-14T02:42:47.701Z,0.20
2022-12-14T02:45:33.184Z,0.20
2022-12-14T02:48:24.564Z,0.20
2022-12-14T02:51:53.845Z,0.20
2022-12-14T02:54:53.242Z,0.20
2022-12-14T02:57:47.574Z,0.20
2022-12-14T03:00:36.511Z,0.20
2022-12-14T03:03:22.461Z,0.20
2022-12-14T03:06:15.762Z,0.20
2022-12-14T03:09:09.073Z,0.30
2022-12-14T03:12:11.949Z,0.30
2022-12-14T03:14:59.645Z,0.30
2022-12-14T03:17:49.256Z,0.30
2022-12-14T03:20:37.596Z,0.30
2022-12-14T03:23:27.423Z,0.30
2022-12-14T03:26:32.440Z,0.40
2022-12-14T03:29:25.401Z,0.40
2022-12-14T03:32:13.958Z,0.40
2022-12-14T03:35:11.009Z,0.40
2022-12-14T03:37:56.284Z,0.40
2022-12-14T03:40:55.764Z,0.50
2022-12-14T03:44:06.981Z,0.50
2022-12-14T03:47:28.629Z,0.60
2022-12-14T03:50:24.986Z,0.40
2022-12-14T03:53:16.590Z,0.40
2022-12-14T03:56:13.918Z,0.40
2022-12-14T03:59:08.543Z,0.40
2022-12-14T04:02:26.726Z,0.40
2022-12-14T04:05:45.468Z,0.40
2022-12-14T04:08:55.434Z,0.40
2022-12-14T04:12:07.927Z,0.40
2022-12-14T04:15:26.185Z,0.50
2022-12-14T04:18:42.917Z,0.60
2022-12-14T04:21:36.557Z,0.60
2022-12-14T04:25:01.572Z,0.60
2022-12-14T04:28:09.261Z,0.60
2022-12-14T04:30:59.971Z,0.60
2022-12-14T04:33:52.918Z,0.70
2022-12-14T04:36:58.928Z,0.70
2022-12-14T04:39:49.868Z,0.70
2022-12-14T04:42:42.154Z,0.70
2022-12-14T04:45:40.891Z,0.60
2022-12-14T04:48:45.076Z,0.60
2022-12-14T04:52:01.910Z,0.60
2022-12-14T04:54:55.894Z,0.60
2022-12-14T04:57:51.636Z,0.60
2022-12-14T05:00:47.809Z,0.60
2022-12-14T05:03:43.708Z,0.60
2022-12-14T05:06:35.322Z,0.60
2022-12-14T05:09:44.182Z,0.60
2022-12-14T05:12:48.593Z,0.60
2022-12-14T05:15:46.774Z,0.60
2022-12-14T05:18:35.119Z,0.60
2022-12-14T05:21:39.572Z,0.60
2022-12-14T05:24:24.934Z,0.60
2022-12-14T05:27:10.509Z,0.70
2022-12-14T05:29:58.333Z,0.70
2022-12-14T05:32:44.148Z,0.60
2022-12-14T05:35:29.910Z,0.70
2022-12-14T05:38:15.463Z,0.70
2022-12-14T05:41:01.367Z,0.70
2022-12-14T05:43:47.068Z,0.70
2022-12-14T05:46:34.952Z,0.70
2022-12-14T05:49:20.701Z,0.70
2022-12-14T05:52:06.658Z,0.80
2022-12-14T05:54:57.185Z,0.80
2022-12-14T05:57:46.533Z,0.80
2022-12-14T06:00:32.194Z,0.80
2022-12-14T06:03:17.988Z,0.80
2022-12-14T06:06:06.279Z,0.80
2022-12-14T06:08:51.669Z,0.80
2022-12-14T06:11:39.949Z,0.90
2022-12-14T06:14:25.678Z,0.90
2022-12-14T06:17:12.652Z,0.80
2022-12-14T06:19:58.358Z,0.80
2022-12-14T06:22:47.544Z,0.80
2022-12-14T06:25:33.587Z,0.80
2022-12-14T06:28:19.252Z,0.70
2022-12-14T06:31:06.328Z,0.80
2022-12-14T06:33:53.262Z,0.80
2022-12-14T06:36:40.905Z,0.80
2022-12-14T06:39:26.728Z,0.80
2022-12-14T06:42:11.957Z,0.90
2022-12-14T06:44:57.490Z,0.90
2022-12-14T06:47:43.233Z,0.90
2022-12-14T06:50:29.032Z,0.90
2022-12-14T06:53:14.858Z,0.90
2022-12-14T06:56:11.853Z,0.90
2022-12-14T06:58:59.072Z,1.00
2022-12-14T07:01:46.141Z,1.00
2022-12-14T07:04:35.802Z,0.90
2022-12-14T07:07:21.438Z,1.00
2022-12-14T07:10:08.747Z,0.90
2022-12-14T07:12:55.707Z,0.90
2022-12-14T07:15:41.650Z,1.00
2022-12-14T07:18:28.164Z,1.00
2022-12-14T07:21:17.308Z,1.00
2022-12-14T07:24:03.377Z,1.10
2022-12-14T07:26:49.408Z,1.00
2022-12-14T07:29:35.206Z,1.10
2022-12-14T07:32:20.796Z,1.10
2022-12-14T07:35:09.442Z,1.10
2022-12-14T07:37:58.957Z,1.10
2022-12-14T07:40:45.312Z,1.20
2022-12-14T07:43:31.058Z,1.20
2022-12-14T07:46:20.664Z,1.20
2022-12-14T07:49:06.714Z,1.20
2022-12-14T07:51:52.969Z,1.30
2022-12-14T07:54:38.726Z,1.30
2022-12-14T07:57:24.272Z,1.30
2022-12-14T08:00:10.540Z,1.30
2022-12-14T08:02:59.188Z,1.30
2022-12-14T08:05:44.470Z,1.30
2022-12-14T08:08:30.386Z,1.40
2022-12-14T08:11:17.400Z,1.40
2022-12-14T08:14:08.469Z,1.40
2022-12-14T08:16:54.013Z,1.50
2022-12-14T08:19:39.650Z,1.50
2022-12-14T08:22:25.202Z,1.50
2022-12-14T08:25:10.989Z,1.50
2022-12-14T08:27:56.623Z,1.60
2022-12-14T08:30:42.390Z,1.60
2022-12-14T08:33:28.025Z,1.60
2022-12-14T08:36:16.653Z,1.60
2022-12-14T08:39:06.363Z,1.60
2022-12-14T08:41:51.968Z,1.70
2022-12-14T08:44:37.471Z,1.70
2022-12-14T08:47:23.040Z,1.70
2022-12-14T08:50:09.542Z,1.70
2022-12-14T08:52:55.475Z,1.70
2022-12-14T08:55:41.190Z,1.70
2022-12-14T08:58:27.101Z,1.70
2022-12-14T09:01:15.897Z,1.70
2022-12-14T09:04:07.968Z,1.70
2022-12-14T09:06:53.577Z,1.70
2022-12-14T09:09:39.287Z,1.70
2022-12-14T09:12:25.302Z,1.70
2022-12-14T09:15:11.400Z,1.60
2022-12-14T09:17:56.734Z,1.70
2022-12-14T09:20:43.452Z,1.70
2022-12-14T09:23:30.910Z,1.70
2022-12-14T09:26:19.659Z,1.70
2022-12-14T09:29:05.379Z,1.70
2022-12-14T09:31:50.782Z,1.60
2022-12-14T09:34:36.585Z,1.60
2022-12-14T09:37:22.220Z,1.60
2022-12-14T09:40:10.365Z,1.60
2022-12-14T09:43:04.669Z,1.60
2022-12-14T09:45:58.372Z,1.50
2022-12-14T09:48:44.687Z,1.50
2022-12-14T09:51:36.800Z,1.50
2022-12-14T09:54:27.615Z,1.60
2022-12-14T09:57:37.220Z,1.70
2022-12-14T10:00:22.738Z,1.80
2022-12-14T10:03:23.783Z,1.80
2022-12-14T10:06:21.766Z,1.80
2022-12-14T10:09:21.235Z,1.90
2022-12-14T10:12:34.204Z,1.80
2022-12-14T10:15:32.146Z,1.80
2022-12-14T10:21:44.568Z,2.00
2022-12-14T10:24:45.018Z,1.90
2022-12-14T10:27:47.616Z,1.90
2022-12-14T10:30:36.462Z,1.90
2022-12-14T10:33:21.987Z,2.00
2022-12-14T10:36:28.792Z,2.00
2022-12-14T10:39:30.226Z,2.10
2022-12-14T10:42:26.095Z,2.10
2022-12-14T10:48:34.599Z,2.20
2022-12-14T10:51:50.263Z,2.10
2022-12-14T10:54:43.368Z,2.20
2022-12-14T10:57:28.702Z,2.20
2022-12-14T11:00:22.799Z,2.20
2022-12-14T11:03:15.785Z,2.30
2022-12-14T11:06:20.021Z,2.30
2022-12-14T11:09:21.551Z,2.30
2022-12-14T11:12:28.044Z,2.30
2022-12-14T11:15:25.965Z,2.30
2022-12-14T11:18:17.793Z,2.40
2022-12-14T11:21:05.664Z,2.30
2022-12-14T11:23:54.656Z,2.30
2022-12-14T11:26:42.559Z,2.30
2022-12-14T11:29:36.655Z,2.30
2022-12-14T11:32:25.728Z,2.30
2022-12-14T11:35:18.329Z,2.20
2022-12-14T11:38:05.703Z,2.20
2022-12-14T11:40:52.527Z,2.10
2022-12-14T11:43:41.144Z,2.10
2022-12-14T11:47:08.432Z,2.20
2022-12-14T11:49:57.822Z,2.20
2022-12-14T11:52:43.281Z,2.20
2022-12-14T11:55:29.211Z,2.20
2022-12-14T11:58:32.272Z,2.20
2022-12-14T12:01:24.371Z,2.20
2022-12-14T12:04:15.246Z,2.20
2022-12-14T12:07:24.257Z,2.20
2022-12-14T12:10:12.937Z,2.20
2022-12-14T12:13:01.440Z,2.20
2022-12-14T12:15:54.630Z,2.20
2022-12-14T12:18:59.202Z,2.20
2022-12-14T12:21:45.313Z,2.20
2022-12-14T12:28:23.594Z,2.30
2022-12-14T12:31:14.863Z,2.20
2022-12-14T12:34:12.140Z,2.30
2022-12-14T12:37:25.784Z,2.30
2022-12-14T12:40:29.210Z,2.30
2022-12-14T12:43:14.543Z,2.30
2022-12-14T12:46:05.631Z,2.30
2022-12-14T12:48:58.382Z,2.20
2022-12-14T12:51:59.983Z,2.30
2022-12-14T12:54:57.136Z,2.30
2022-12-14T12:57:47.400Z,2.30
2022-12-14T13:00:33.824Z,2.30
2022-12-14T13:03:37.408Z,2.40
2022-12-14T13:06:31.038Z,2.40
2022-12-14T13:09:21.501Z,2.40
2022-12-14T13:12:14.548Z,2.50
2022-12-14T13:15:02.606Z,2.50
2022-12-14T13:17:53.080Z,2.50
2022-12-14T13:20:38.602Z,2.50
2022-12-14T13:23:45.448Z,2.50
2022-12-14T13:26:57.826Z,2.50
2022-12-14T13:30:02.351Z,2.50
2022-12-14T13:33:22.112Z,2.50
2022-12-14T13:36:28.634Z,2.50
2022-12-14T13:40:09.448Z,2.50
2022-12-14T13:43:06.936Z,2.50
2022-12-14T13:45:54.689Z,2.50
2022-12-14T13:48:41.577Z,2.50
2022-12-14T13:51:36.142Z,2.50
2022-12-14T13:54:27.893Z,2.50
2022-12-14T13:57:21.855Z,2.50
2022-12-14T14:00:08.043Z,2.50
2022-12-14T14:02:57.360Z,2.40
2022-12-14T14:05:45.687Z,2.50
2022-12-14T14:08:41.730Z,2.50
2022-12-14T14:11:37.069Z,2.50
2022-12-14T14:15:11.276Z,2.50
2022-12-14T14:18:12.413Z,2.50
2022-12-14T14:21:13.114Z,2.50
2022-12-14T14:24:17.948Z,2.50
2022-12-14T14:27:18.349Z,2.60
2022-12-14T14:30:24.928Z,2.60
2022-12-14T14:33:47.362Z,2.60
2022-12-14T14:36:36.123Z,2.50
2022-12-14T14:39:56.121Z,2.50
2022-12-14T14:42:51.576Z,2.60
2022-12-14T14:45:53.108Z,2.50
2022-12-14T14:48:55.494Z,2.60
2022-12-14T14:51:40.940Z,2.60
2022-12-14T14:55:10.719Z,2.50
2022-12-14T14:57:57.537Z,2.50
2022-12-14T15:01:00.127Z,2.50
2022-12-14T15:03:45.583Z,2.50
2022-12-14T15:06:43.721Z,2.50
2022-12-14T15:09:39.189Z,2.60
2022-12-14T15:12:41.826Z,2.50
2022-12-14T15:15:38.680Z,2.50
2022-12-14T15:18:32.896Z,2.50
2022-12-14T15:21:19.322Z,2.50
2022-12-14T15:24:05.258Z,2.50
2022-12-14T15:26:50.917Z,2.50
2022-12-14T15:29:37.398Z,2.50
2022-12-14T15:32:24.262Z,2.50
2022-12-14T15:35:18.619Z,2.50
2022-12-14T15:38:16.634Z,2.50
2022-12-14T15:41:05.844Z,2.50
2022-12-14T15:43:56.459Z,2.50
2022-12-14T15:46:53.278Z,2.50
2022-12-14T15:49:39.538Z,2.50
2022-12-14T15:52:29.944Z,2.50
2022-12-14T15:55:24.329Z,2.50
2022-12-14T15:58:26.817Z,2.50
2022-12-14T16:01:34.548Z,2.50
2022-12-14T16:04:22.953Z,2.60
2022-12-14T16:07:34.959Z,2.60
2022-12-14T16:10:34.366Z,2.60
2022-12-14T16:13:25.358Z,2.70
2022-12-14T16:16:13.302Z,2.60
2022-12-14T16:19:20.229Z,2.70
2022-12-14T16:22:28.079Z,2.70
2022-12-14T16:25:19.112Z,2.70
2022-12-14T16:28:33.905Z,2.60
2022-12-14T16:31:21.438Z,2.50
2022-12-14T16:34:18.757Z,2.50
2022-12-14T16:37:31.625Z,2.50
2022-12-14T16:40:40.834Z,2.40
2022-12-14T16:43:55.984Z,2.50
2022-12-14T16:46:50.388Z,2.50
2022-12-14T16:49:50.158Z,2.50
2022-12-14T16:52:37.219Z,2.50
2022-12-14T16:55:26.285Z,2.40
2022-12-14T16:58:17.473Z,2.40
2022-12-14T17:01:07.047Z,2.40
2022-12-14T17:04:00.782Z,2.50
2022-12-14T17:06:51.154Z,2.50
2022-12-14T17:09:37.189Z,2.50
2022-12-14T17:12:24.520Z,2.60
2022-12-14T17:15:16.867Z,2.60
2022-12-14T17:18:04.427Z,2.70
2022-12-14T17:20:50.242Z,2.70
2022-12-14T17:23:38.756Z,2.60
2022-12-14T17:26:28.173Z,2.60
2022-12-14T17:29:25.811Z,2.60
2022-12-14T17:32:13.978Z,2.50
2022-12-14T17:35:00.719Z,2.50
2022-12-14T17:37:46.575Z,2.50
2022-12-14T17:40:32.567Z,2.50
2022-12-14T17:43:24.637Z,2.50
2022-12-14T17:46:10.170Z,2.50
2022-12-14T17:48:55.925Z,2.50
2022-12-14T17:51:44.687Z,2.40
2022-12-14T17:54:31.326Z,2.40
2022-12-14T17:57:20.227Z,2.40
2022-12-14T18:00:24.939Z,2.40
2022-12-14T18:03:12.320Z,2.50
2022-12-14T18:05:59.260Z,2.50
2022-12-14T18:08:46.023Z,2.50
2022-12-14T18:11:31.884Z,2.50
2022-12-14T18:14:17.455Z,2.50
2022-12-14T18:17:06.764Z,2.50
2022-12-14T18:19:57.014Z,2.50
2022-12-14T18:22:43.367Z,2.50
2022-12-14T18:25:43.225Z,2.50
2022-12-14T18:28:33.598Z,2.50
2022-12-14T18:31:32.742Z,2.50
2022-12-14T18:34:18.668Z,2.50
2022-12-14T18:37:04.779Z,2.50
2022-12-14T18:39:50.671Z,2.50
2022-12-14T18:42:36.596Z,2.50
2022-12-14T18:45:31.240Z,2.50
2022-12-14T18:48:16.887Z,2.50
2022-12-14T18:51:02.738Z,2.50
2022-12-14T18:53:50.792Z,2.50
2022-12-14T18:56:36.580Z,2.50
2022-12-14T18:59:22.249Z,2.50
2022-12-14T19:02:13.608Z,2.50
2022-12-14T19:04:59.106Z,2.50
2022-12-14T19:07:45.224Z,2.50
2022-12-14T19:10:33.093Z,2.50
2022-12-14T19:13:26.003Z,2.40
2022-12-14T19:16:12.550Z,2.50
2022-12-14T19:18:59.625Z,2.50
2022-12-14T19:21:44.985Z,2.50
2022-12-14T19:24:30.784Z,2.50
2022-12-14T19:27:35.637Z,2.50
2022-12-14T19:30:23.267Z,2.50
2022-12-14T19:33:10.449Z,2.60
2022-12-14T19:35:56.468Z,2.60
2022-12-14T19:38:41.846Z,2.60
2022-12-14T19:41:27.451Z,2.60
2022-12-14T19:44:13.403Z,2.50
2022-12-14T19:46:58.771Z,2.50
2022-12-14T19:49:44.340Z,2.50
2022-12-14T19:52:30.043Z,2.50
2022-12-14T19:55:15.666Z,2.50
2022-12-14T19:58:01.369Z,2.50
2022-12-14T20:00:46.924Z,2.40
2022-12-14T20:03:33.007Z,2.40
2022-12-14T20:06:18.704Z,2.40
2022-12-14T20:09:06.119Z,2.40
2022-12-14T20:11:51.660Z,2.40
2022-12-14T20:14:40.081Z,2.40
2022-12-14T20:17:26.994Z,2.40
2022-12-14T20:20:12.508Z,2.40
2022-12-14T20:22:57.819Z,2.40
2022-12-14T20:25:43.545Z,2.40
2022-12-14T20:28:29.680Z,2.40
2022-12-14T20:31:15.695Z,2.40
2022-12-14T20:34:04.288Z,2.40
2022-12-14T20:36:49.799Z,2.30
2022-12-14T20:39:35.557Z,2.40
2022-12-14T20:42:21.268Z,2.40
2022-12-14T20:45:10.483Z,2.40
2022-12-14T20:48:14.293Z,2.40
2022-12-14T20:51:07.026Z,2.40
2022-12-14T20:53:54.170Z,2.50
2022-12-14T20:56:40.912Z,2.40
2022-12-14T20:59:27.516Z,2.40
2022-12-14T21:02:18.589Z,2.30
2022-12-14T21:05:04.670Z,2.30
2022-12-14T21:07:50.285Z,2.30
2022-12-14T21:10:36.165Z,2.30
2022-12-14T21:13:21.819Z,2.30
2022-12-14T21:16:09.829Z,2.30
2022-12-14T21:18:55.062Z,2.40
2022-12-14T21:21:41.924Z,2.40
2022-12-14T21:25:00.975Z,2.40
2022-12-14T21:27:35.702Z,2.40
2022-12-14T21:30:21.152Z,2.40
2022-12-14T21:33:06.734Z,2.40
2022-12-14T21:35:52.246Z,2.50
2022-12-14T21:38:38.693Z,2.50
2022-12-14T21:41:43.828Z,2.50
2022-12-14T21:44:30.891Z,2.50
2022-12-14T21:47:21.026Z,2.50
2022-12-14T21:50:07.142Z,2.50
2022-12-14T21:52:52.651Z,2.40
2022-12-14T21:55:38.265Z,2.50
2022-12-14T21:58:24.657Z,2.40
2022-12-14T22:01:10.222Z,2.40
2022-12-14T22:03:55.839Z,2.40
2022-12-14T22:06:41.408Z,2.40
2022-12-14T22:09:27.284Z,2.40
2022-12-14T22:12:13.503Z,2.40
2022-12-14T22:14:59.024Z,2.40
2022-12-14T22:17:44.600Z,2.40
2022-12-14T22:20:30.667Z,2.30
2022-12-14T22:23:16.270Z,2.30
2022-12-14T22:26:01.816Z,2.30
2022-12-14T22:28:53.895Z,2.30
2022-12-14T22:31:39.165Z,2.30
2022-12-14T22:34:24.650Z,2.40
2022-12-14T22:37:12.864Z,2.40
2022-12-14T22:39:58.428Z,2.40
2022-12-14T22:42:44.677Z,2.40
2022-12-14T22:45:30.568Z,2.40
2022-12-14T22:48:16.772Z,2.30
2022-12-14T22:51:08.964Z,2.30
2022-12-14T22:53:54.801Z,2.30
2022-12-14T22:56:44.714Z,2.40
2022-12-14T22:59:36.398Z,2.30
2022-12-14T23:02:23.644Z,2.30
2022-12-14T23:05:10.346Z,2.30
2022-12-14T23:07:55.854Z,2.30
2022-12-14T23:11:00.999Z,2.30
2022-12-14T23:14:04.682Z,2.30
2022-12-14T23:17:08.897Z,2.30
2022-12-14T23:20:12.915Z,2.30
2022-12-14T23:23:17.149Z,2.20
2022-12-14T23:26:22.882Z,2.20
2022-12-14T23:29:26.998Z,2.20
2022-12-14T23:32:31.128Z,2.00
2022-12-14T23:35:35.329Z,2.20
2022-12-14T23:38:39.332Z,2.20
2022-12-14T23:41:43.431Z,2.20
2022-12-14T23:44:47.673Z,2.20
2022-12-14T23:47:51.964Z,2.30
2022-12-14T23:50:56.378Z,2.30
2022-12-14T23:54:00.335Z,2.30
2022-12-14T23:57:04.352Z,2.40
